map of PES home
PES - Airport
Location
City:  Petrozavodsk, Kareliya, Russian Federation (Russia)
Name:Besovets Airport
ICAO:ULPB
IATA:PES

Details
Type:Airport (Aerodrome, Airfield)
Use:Public/Civil, International (customs port of entry)
Latitude:6153'07"N (61.885278)
Longitude:3409'17"E (34.154722)
Elevation:151 ft (46 m)
Variation:13.13E (WMM2015 magnetic declination)
0.15 annual change
Runways:1
Longest:8212 × 157 ft (2503 × 48 m), paved

Time
Time Zone:UTC+3 (DST+4)

Weather
METAR:ULPB 161900Z AUTO 28003MPS 9999 // ///040/// 10/07 Q1018 RMK QFE760/1013

Related Locations
Nearby:
Farthest:NZTB: 10943 mi / 17610 km
Terra Nova Bay [Mario Zucchelli Station], AQ

Find:

   beyond  
but within

Other Information
Maps:
NOTAMs:
Links:
Sources:

  
  • flag of Russian Federation (Russia)
  • flag of Kareliya
  

Airport Diagram

Airport diagram for PES

Airport diagram PDF from AIP of the Russian Federation

Sectional Chart

Flight Planning
at skyvector.com

Satellite Image

Google Maps Satellite view

Yandex Maps Satellite view


 

Copyright © 2004-2018 Karl L. Swartz. All rights reserved.
The Great Circle Mapper name and logo are trademarks of the Great Circle Mapper.
All other trademarks mentioned herein belong to their respective owners.
Please see credits for attibutions and further copyright information.

  Follow gcmap on Facebook Follow gcmap on Twitter Follow gcmap on Google+ GCmap on LinkedIn

hCard Microformat

Geo Microformat